Dorrington, CA

2:21 AM PST on February 23, 2017 (GMT -0800)
Big Trees - Sierra Parkway | | Change Station
Active Advisory: Hydrologic Statement

Elev 5066 ft 38.31 °N, 120.27 °W | Updated 44 seconds ago

Overcast
Overcast
25.0 °F
Feels Like 25 °F
N
0.0
Wind Variable Wind from South
Gusts 0.0 mph

Today
High -- | Low -- °F
--% Chance of Precip.
Yesterday
High -- | Low -- °F
Precip. -- in
Pressure 30.00 in
Visibility 10.0 miles
Clouds Mostly Cloudy 3700 ft
Overcast 4600 ft
Windchill 25 °F
Dew Point 25 °F
Humidity 99%
Rainfall 0.00 in
Snow Depth Not available.
6:40 AM 5:48 PM
Waning Crescent, 11% visible
METAR KTVL 230953Z AUTO 00000KT 10SM BKN037 OVC046 M08/M10 A2993 RMK AO2 SNB0856E45 SLP157 P0000 T10831100
Pressure 30.00 in
Visibility 10.0 miles
Clouds Mostly Cloudy 3700 ft
Overcast 4600 ft
Windchill 25 °F
Dew Point 25 °F
Humidity 99%
Rainfall 0.00 in
Snow Depth Not available.
6:40 AM 5:48 PM
Waning Crescent, 11% visible
METAR KTVL 230953Z AUTO 00000KT 10SM BKN037 OVC046 M08/M10 A2993 RMK AO2 SNB0856E45 SLP157 P0000 T10831100

Get Your Daily Forecast Email!

Thanks for signing up!

Be on the lookout for a verification email in your inbox.

You'll start receiving the daily forecast at 8 AM.

×

10-Day Weather Forecast

Almanac

Astronomy

Feb. 23, 2017 Rise Set
Actual Time
Civil Twilight
Nautical Twilight
Astronomical Twilight
Moon
Length of Visible Light
Length of Day
Tomorrow will be .
, % of the Moon is Illuminated

Today's Extremes

State Highs State Lows

Community

WunderPhotos

Upload Photos

1,962,540 photos uploaded!

WunderBlog® & News

Nearby

Air Quality

  Air Quality AQ Index Pollutant
Not available.

Snow Depth

Station Depth Elevation

Earthquake Activity

City Distance Mag. Time & Date
Minimum magnitude displayed is 2.5.

Coastal Water Temperatures

Place Temperature

Stations

Nearby Weather Stations

Station Location Temp. Windchill Dew Point Humidity Wind Precip. Elev Updated Type
                   

Watches & Warnings

Hydrologic Statement
Issued: 8:46 PM PST Feb. 22, 2017 – National Weather Service

Forecast information for
Cosumnes river at Michigan Bar.
* At 7:30 PM Wednesday the stage was 8.8 feet.
* Forecast to recede to near 7.5 ft tomorrow evening then forecast to
fluctuate near 7.5 ft thru late tomorrow evening.
* Flood stage 12.0 ft
* monitor stage 7.0 ft
* impact... near 8.0 feet, low lying lands along the river begin to
flood.

&&

Lat... Lon 3848 12133 3859 12103 3842 12092 3836 12124